Kriti Jade — SVAT6 — position and weather

sailwx.info

Track history (hours):
 
Tides and Currents Weather Stations Pressure Air Temp Water Temp Dewpoint Dewpoint Depression Visibility Wind Speed Wind Dir Waves Ship Positions

Kriti Jade

Last reported at 2017-Dec-15 21:30 UTC. Time now 2017-Dec-15 21:32 UTC.
Position N 44°24' E 037°26'.

Length 183 m; draft 8.4 m.

Type: Ship. MMSI: 240942000.

Date/timePositionNaut miles runAvg speedWind from/ knotsBaromVisibWave heightAir tempDewpointWater temp
2017-Dec-15 21:30N 44°24' E 037°26'0 1.0
2017-Dec-15 21:00N 44°23' E 037°26'1 1.1
2017-Dec-15 20:30N 44°23' E 037°27'1 1.1
2017-Dec-15 20:00N 44°23' E 037°27'1 1.2
2017-Dec-15 19:30N 44°22' E 037°28'1 1.2
2017-Dec-15 19:00N 44°22' E 037°29'1 1.2
2017-Dec-15 18:28N 44°21' E 037°29'1 1.2
2017-Dec-15 18:00N 44°21' E 037°30'1 1.1
2017-Dec-15 17:30N 44°21' E 037°31'1 1.0
2017-Dec-15 16:58N 44°20' E 037°31'0 1.0
2017-Dec-15 16:30N 44°20' E 037°32'1 1.0
2017-Dec-15 16:00N 44°20' E 037°32'1 1.1
2017-Dec-15 15:29N 44°20' E 037°33'1 1.1
2017-Dec-15 14:58N 44°20' E 037°34'1 1.0
2017-Dec-15 14:27N 44°19' E 037°35'0 1.0
2017-Dec-15 14:00N 44°19' E 037°35'1 1.4
2017-Dec-15 13:18N 44°20' E 037°36'3 8.8
2017-Dec-15 12:55N 44°24' E 037°35'4 8.9
2017-Dec-15 12:30N 44°27' E 037°35'1 1.5
2017-Dec-15 12:00N 44°28' E 037°34'0 0.9
2017-Dec-15 11:31N 44°27' E 037°34'1 0.9
2017-Dec-15 10:54N 44°27' E 037°34'0 0.6
2017-Dec-15 10:27N 44°27' E 037°34'0 0.8
2017-Dec-15 10:00N 44°26' E 037°34'1 0.9
2017-Dec-15 09:21N 44°26' E 037°33'0 0.6
2017-Dec-15 08:51N 44°25' E 037°33'1 2.3
2017-Dec-15 08:30N 44°26' E 037°33'5 9.3
2017-Dec-15 08:00N 44°29' E 037°28'3 6.6
2017-Dec-15 07:30N 44°30' E 037°23'1 1.5
2017-Dec-15 07:00N 44°30' E 037°24'1 1.4
2017-Dec-15 06:30N 44°30' E 037°25'1 1.4
2017-Dec-15 06:00N 44°29' E 037°26'1 1.4
2017-Dec-15 05:18N 44°29' E 037°27'1 1.4
2017-Dec-15 04:57N 44°28' E 037°28'2 1.3
2017-Dec-15 03:48N 44°28' E 037°30'2 1.2
2017-Dec-15 02:21N 44°27' E 037°32'2 1.2
2017-Dec-15 00:57N 44°26' E 037°34'1 1.2
2017-Dec-15 00:30N 44°25' E 037°34'6 1.0
2017-Dec-14 18:29N 44°29' E 037°28'3 1.2
2017-Dec-14 16:17N 44°28' E 037°31'0 1.2
2017-Dec-14 15:59N 44°28' E 037°32'1 1.2
2017-Dec-14 14:59N 44°28' E 037°33'1 1.2
2017-Dec-14 14:29N 44°28' E 037°34'1 1.2
2017-Dec-14 13:59N 44°27' E 037°35'1 1.3
2017-Dec-14 13:26N 44°27' E 037°36'1 1.3
2017-Dec-14 12:59N 44°27' E 037°37'1 1.2
2017-Dec-14 12:20N 44°27' E 037°38'0 1.2
2017-Dec-14 11:56N 44°26' E 037°38'0 1.2
2017-Dec-14 11:31N 44°26' E 037°39'1 1.3
2017-Dec-14 11:00N 44°26' E 037°40'0 0.9
2017-Dec-14 10:30N 44°26' E 037°41'1 2.7
2017-Dec-14 10:00N 44°26' E 037°39'510.0
2017-Dec-14 09:30N 44°25' E 037°32'612.0
2017-Dec-14 09:00N 44°23' E 037°24'612.3
2017-Dec-14 08:30N 44°20' E 037°17'612.2
2017-Dec-14 08:00N 44°17' E 037°09'612.1
2017-Dec-14 07:29N 44°14' E 037°01'612.2
2017-Dec-14 07:00N 44°11' E 036°54'712.4
2017-Dec-14 06:25N 44°08' E 036°45'2512.4
2017-Dec-14 04:26N 43°56' E 036°15'512.5
2017-Dec-14 04:00N 43°54' E 036°08'36012.4
2017-Dec-12 22:53N 41°01' E 028°60'4 9.8
2017-Dec-12 22:30N 40°58' E 028°59'5 9.4
2017-Dec-12 22:00N 40°53' E 028°56'4 7.7
2017-Dec-12 21:28N 40°50' E 028°59'0 0.7
2017-Dec-12 21:00N 40°50' E 028°59'0 0.4
2017-Dec-12 20:24N 40°50' E 028°59'0 0.3
2017-Dec-12 19:59N 40°49' E 028°59'0 0.4
2017-Dec-12 19:30N 40°49' E 028°59'0 0.4
2017-Dec-12 19:00N 40°49' E 028°59'0 0.3
2017-Dec-12 18:29N 40°49' E 028°59'0 0.3
2017-Dec-12 17:59N 40°49' E 028°59'0 0.3
2017-Dec-12 17:18N 40°49' E 028°59'0 0.4
2017-Dec-12 16:59N 40°48' E 028°59'0 0.6
2017-Dec-12 16:30N 40°48' E 028°58'1 0.7
2017-Dec-12 15:36N 40°48' E 028°59'0 2.7
2017-Dec-12 15:30N 40°47' E 028°59'4 7.5
2017-Dec-12 15:00N 40°44' E 029°01'2 1.7
2017-Dec-12 13:56N 40°42' E 029°01'0 0.7
2017-Dec-12 13:26N 40°42' E 029°01'0 0.8
2017-Dec-12 12:56N 40°43' E 029°01'1 0.9
2017-Dec-12 11:32N 40°44' E 029°00'0 1.0
2017-Dec-12 11:08N 40°44' E 028°60'0 1.2
2017-Dec-12 10:50N 40°45' E 028°60'1 4.5
2017-Dec-12 10:30N 40°46' E 029°01'4 4.8
2017-Dec-12 09:46N 40°49' E 029°02'0 0.5
2017-Dec-12 09:28N 40°49' E 029°02'0 0.5
2017-Dec-12 08:58N 40°49' E 029°02'0 0.4
2017-Dec-12 08:28N 40°49' E 029°02'0 1.1
2017-Dec-12 08:00N 40°48' E 029°02'4 7.3
2017-Dec-12 07:29N 40°45' E 029°02'2 1.1
2017-Dec-12 05:25N 40°43' E 028°59'0 0.8
2017-Dec-12 05:00N 40°44' E 028°59'2 0.9
2017-Dec-12 03:01N 40°44' E 028°57'2 4.2
2017-Dec-12 02:30N 40°46' E 028°56'3 6.9
2017-Dec-12 02:00N 40°50' E 028°57'2 1.2
2017-Dec-12 00:38N 40°48' E 028°56'0 1.3
2017-Dec-12 00:26N 40°48' E 028°56'1 1.2
2017-Dec-11 23:56N 40°47' E 028°56'2 1.3
2017-Dec-11 22:30N 40°46' E 028°56'4 7.7
2017-Dec-11 22:00N 40°44' E 029°01'3 6.0
2017-Dec-11 21:30N 40°44' E 029°05'0 1.0
2017-Dec-11 21:00N 40°44' E 029°04'1 1.0
2017-Dec-11 20:30N 40°44' E 029°04'1 1.1
2017-Dec-11 19:58N 40°45' E 029°03'1 1.1
2017-Dec-11 19:30N 40°45' E 029°02'1 1.3
2017-Dec-11 19:00N 40°45' E 029°02'1 1.2
2017-Dec-11 18:28N 40°46' E 029°01'1 1.2
2017-Dec-11 17:58N 40°46' E 029°00'1 1.2
2017-Dec-11 17:29N 40°46' E 028°60'1 1.1
2017-Dec-11 16:58N 40°47' E 028°59'2 4.8
2017-Dec-11 16:30N 40°49' E 028°59'1 2.8
2017-Dec-11 16:00N 40°50' E 028°59'1 1.5
2017-Dec-11 15:30N 40°50' E 028°58'1 1.7
2017-Dec-11 14:54N 40°50' E 028°56'2 5.2
2017-Dec-11 14:30N 40°48' E 028°57'1 1.4
2017-Dec-11 13:54N 40°47' E 028°57'0 1.2
2017-Dec-11 13:30N 40°47' E 028°57'1 1.4
2017-Dec-11 13:00N 40°48' E 028°56'4 7.6
2017-Dec-11 12:30N 40°48' E 028°51'712.9
2017-Dec-11 11:59N 40°49' E 028°42'254 6.1
2017-Dec-09 18:21N 37°59' E 024°38'512.9
2017-Dec-09 18:00N 37°55' E 024°36'613.1
2017-Dec-09 17:30N 37°49' E 024°33'613.0
2017-Dec-09 17:00N 37°43' E 024°30'612.7
2017-Dec-09 16:30N 37°37' E 024°27'612.5
2017-Dec-09 16:00N 37°31' E 024°23'612.7
2017-Dec-09 15:30N 37°26' E 024°19'613.0
2017-Dec-09 15:00N 37°21' E 024°15'612.8
2017-Dec-09 14:30N 37°15' E 024°10'612.7
2017-Dec-09 14:00N 37°10' E 024°06'612.5
2017-Dec-09 13:30N 37°05' E 024°01'612.2
2017-Dec-09 13:00N 36°60' E 023°57'612.0
2017-Dec-09 12:30N 36°55' E 023°52'612.3
2017-Dec-09 12:00N 36°51' E 023°47'912.4
2017-Dec-09 11:18N 36°44' E 023°40'412.3
2017-Dec-09 10:58N 36°41' E 023°36'  
Track history (hours):
 
Tides and Currents Weather Stations Pressure Air Temp Water Temp Dewpoint Dewpoint Depression Visibility Wind Speed Wind Dir Waves Ship Positions

Kriti Jade

Last reported at 2017-Dec-15 21:30 UTC. Time now 2017-Dec-15 21:32 UTC.
Position N 44°24' E 037°26'.

Length 183 m; draft 8.4 m.

Type: Ship. MMSI: 240942000.

Date/timePositionNaut miles runAvg speedWind from/ knotsBaromVisibWave heightAir tempDewpointWater temp
2017-Dec-15 21:30N 44°24' E 037°26'0 1.0
2017-Dec-15 21:00N 44°23' E 037°26'1 1.1
2017-Dec-15 20:30N 44°23' E 037°27'1 1.1
2017-Dec-15 20:00N 44°23' E 037°27'1 1.2
2017-Dec-15 19:30N 44°22' E 037°28'1 1.2
2017-Dec-15 19:00N 44°22' E 037°29'1 1.2
2017-Dec-15 18:28N 44°21' E 037°29'1 1.2
2017-Dec-15 18:00N 44°21' E 037°30'1 1.1
2017-Dec-15 17:30N 44°21' E 037°31'1 1.0
2017-Dec-15 16:58N 44°20' E 037°31'0 1.0
2017-Dec-15 16:30N 44°20' E 037°32'1 1.0
2017-Dec-15 16:00N 44°20' E 037°32'1 1.1
2017-Dec-15 15:29N 44°20' E 037°33'1 1.1
2017-Dec-15 14:58N 44°20' E 037°34'1 1.0
2017-Dec-15 14:27N 44°19' E 037°35'0 1.0
2017-Dec-15 14:00N 44°19' E 037°35'1 1.4
2017-Dec-15 13:18N 44°20' E 037°36'3 8.8
2017-Dec-15 12:55N 44°24' E 037°35'4 8.9
2017-Dec-15 12:30N 44°27' E 037°35'1 1.5
2017-Dec-15 12:00N 44°28' E 037°34'0 0.9
2017-Dec-15 11:31N 44°27' E 037°34'1 0.9
2017-Dec-15 10:54N 44°27' E 037°34'0 0.6
2017-Dec-15 10:27N 44°27' E 037°34'0 0.8
2017-Dec-15 10:00N 44°26' E 037°34'1 0.9
2017-Dec-15 09:21N 44°26' E 037°33'0 0.6
2017-Dec-15 08:51N 44°25' E 037°33'1 2.3
2017-Dec-15 08:30N 44°26' E 037°33'5 9.3
2017-Dec-15 08:00N 44°29' E 037°28'3 6.6
2017-Dec-15 07:30N 44°30' E 037°23'1 1.5
2017-Dec-15 07:00N 44°30' E 037°24'1 1.4
2017-Dec-15 06:30N 44°30' E 037°25'1 1.4
2017-Dec-15 06:00N 44°29' E 037°26'1 1.4
2017-Dec-15 05:18N 44°29' E 037°27'1 1.4
2017-Dec-15 04:57N 44°28' E 037°28'2 1.3
2017-Dec-15 03:48N 44°28' E 037°30'2 1.2
2017-Dec-15 02:21N 44°27' E 037°32'2 1.2
2017-Dec-15 00:57N 44°26' E 037°34'1 1.2
2017-Dec-15 00:30N 44°25' E 037°34'6 1.0
2017-Dec-14 18:29N 44°29' E 037°28'3 1.2
2017-Dec-14 16:17N 44°28' E 037°31'0 1.2
2017-Dec-14 15:59N 44°28' E 037°32'1 1.2
2017-Dec-14 14:59N 44°28' E 037°33'1 1.2
2017-Dec-14 14:29N 44°28' E 037°34'1 1.2
2017-Dec-14 13:59N 44°27' E 037°35'1 1.3
2017-Dec-14 13:26N 44°27' E 037°36'1 1.3
2017-Dec-14 12:59N 44°27' E 037°37'1 1.2
2017-Dec-14 12:20N 44°27' E 037°38'0 1.2
2017-Dec-14 11:56N 44°26' E 037°38'0 1.2
2017-Dec-14 11:31N 44°26' E 037°39'1 1.3
2017-Dec-14 11:00N 44°26' E 037°40'0 0.9
2017-Dec-14 10:30N 44°26' E 037°41'1 2.7
2017-Dec-14 10:00N 44°26' E 037°39'510.0
2017-Dec-14 09:30N 44°25' E 037°32'612.0
2017-Dec-14 09:00N 44°23' E 037°24'612.3
2017-Dec-14 08:30N 44°20' E 037°17'612.2
2017-Dec-14 08:00N 44°17' E 037°09'612.1
2017-Dec-14 07:29N 44°14' E 037°01'612.2
2017-Dec-14 07:00N 44°11' E 036°54'712.4
2017-Dec-14 06:25N 44°08' E 036°45'2512.4
2017-Dec-14 04:26N 43°56' E 036°15'512.5
2017-Dec-14 04:00N 43°54' E 036°08'36012.4
2017-Dec-12 22:53N 41°01' E 028°60'4 9.8
2017-Dec-12 22:30N 40°58' E 028°59'5 9.4
2017-Dec-12 22:00N 40°53' E 028°56'4 7.7
2017-Dec-12 21:28N 40°50' E 028°59'0 0.7
2017-Dec-12 21:00N 40°50' E 028°59'0 0.4
2017-Dec-12 20:24N 40°50' E 028°59'0 0.3
2017-Dec-12 19:59N 40°49' E 028°59'0 0.4
2017-Dec-12 19:30N 40°49' E 028°59'0 0.4
2017-Dec-12 19:00N 40°49' E 028°59'0 0.3
2017-Dec-12 18:29N 40°49' E 028°59'0 0.3
2017-Dec-12 17:59N 40°49' E 028°59'0 0.3
2017-Dec-12 17:18N 40°49' E 028°59'0 0.4
2017-Dec-12 16:59N 40°48' E 028°59'0 0.6
2017-Dec-12 16:30N 40°48' E 028°58'1 0.7
2017-Dec-12 15:36N 40°48' E 028°59'0 2.7
2017-Dec-12 15:30N 40°47' E 028°59'4 7.5
2017-Dec-12 15:00N 40°44' E 029°01'2 1.7
2017-Dec-12 13:56N 40°42' E 029°01'0 0.7
2017-Dec-12 13:26N 40°42' E 029°01'0 0.8
2017-Dec-12 12:56N 40°43' E 029°01'1 0.9
2017-Dec-12 11:32N 40°44' E 029°00'0 1.0
2017-Dec-12 11:08N 40°44' E 028°60'0 1.2
2017-Dec-12 10:50N 40°45' E 028°60'1 4.5
2017-Dec-12 10:30N 40°46' E 029°01'4 4.8
2017-Dec-12 09:46N 40°49' E 029°02'0 0.5
2017-Dec-12 09:28N 40°49' E 029°02'0 0.5
2017-Dec-12 08:58N 40°49' E 029°02'0 0.4
2017-Dec-12 08:28N 40°49' E 029°02'0 1.1
2017-Dec-12 08:00N 40°48' E 029°02'4 7.3
2017-Dec-12 07:29N 40°45' E 029°02'2 1.1
2017-Dec-12 05:25N 40°43' E 028°59'0 0.8
2017-Dec-12 05:00N 40°44' E 028°59'2 0.9
2017-Dec-12 03:01N 40°44' E 028°57'2 4.2
2017-Dec-12 02:30N 40°46' E 028°56'3 6.9
2017-Dec-12 02:00N 40°50' E 028°57'2 1.2
2017-Dec-12 00:38N 40°48' E 028°56'0 1.3
2017-Dec-12 00:26N 40°48' E 028°56'1 1.2
2017-Dec-11 23:56N 40°47' E 028°56'2 1.3
2017-Dec-11 22:30N 40°46' E 028°56'4 7.7
2017-Dec-11 22:00N 40°44' E 029°01'3 6.0
2017-Dec-11 21:30N 40°44' E 029°05'0 1.0
2017-Dec-11 21:00N 40°44' E 029°04'1 1.0
2017-Dec-11 20:30N 40°44' E 029°04'1 1.1
2017-Dec-11 19:58N 40°45' E 029°03'1 1.1
2017-Dec-11 19:30N 40°45' E 029°02'1 1.3
2017-Dec-11 19:00N 40°45' E 029°02'1 1.2
2017-Dec-11 18:28N 40°46' E 029°01'1 1.2
2017-Dec-11 17:58N 40°46' E 029°00'1 1.2
2017-Dec-11 17:29N 40°46' E 028°60'1 1.1
2017-Dec-11 16:58N 40°47' E 028°59'2 4.8
2017-Dec-11 16:30N 40°49' E 028°59'1 2.8
2017-Dec-11 16:00N 40°50' E 028°59'1 1.5
2017-Dec-11 15:30N 40°50' E 028°58'1 1.7
2017-Dec-11 14:54N 40°50' E 028°56'2 5.2
2017-Dec-11 14:30N 40°48' E 028°57'1 1.4
2017-Dec-11 13:54N 40°47' E 028°57'0 1.2
2017-Dec-11 13:30N 40°47' E 028°57'1 1.4
2017-Dec-11 13:00N 40°48' E 028°56'4 7.6
2017-Dec-11 12:30N 40°48' E 028°51'712.9
2017-Dec-11 11:59N 40°49' E 028°42'254 6.1
2017-Dec-09 18:21N 37°59' E 024°38'512.9
2017-Dec-09 18:00N 37°55' E 024°36'613.1
2017-Dec-09 17:30N 37°49' E 024°33'613.0
2017-Dec-09 17:00N 37°43' E 024°30'612.7
2017-Dec-09 16:30N 37°37' E 024°27'612.5
2017-Dec-09 16:00N 37°31' E 024°23'612.7
2017-Dec-09 15:30N 37°26' E 024°19'613.0
2017-Dec-09 15:00N 37°21' E 024°15'612.8
2017-Dec-09 14:30N 37°15' E 024°10'612.7
2017-Dec-09 14:00N 37°10' E 024°06'612.5
2017-Dec-09 13:30N 37°05' E 024°01'612.2
2017-Dec-09 13:00N 36°60' E 023°57'612.0
2017-Dec-09 12:30N 36°55' E 023°52'612.3
2017-Dec-09 12:00N 36°51' E 023°47'912.4
2017-Dec-09 11:18N 36°44' E 023°40'412.3
2017-Dec-09 10:58N 36°41' E 023°36'  

Dump ship's entire track history